• Join FlightAware (Why Join?)
  • Login
  • US Flag 
Trick or treat! (Boo!!) 
03:44AM EDT


 

Airport Tracker/Info


-or-


 

Live Flight TrackerFlight Track Log ✈ WBR2634 ✈ 06-Jun-2013 ✈ KBRL - KORD

Flight Track Log - Related Links

Times and Time Zones

All times are in EDT time to prevent confusion due to time zone crossing. See the WBR2634 flight status page for this flight to view local times or setup timezone preferences in your user account.

Time Position Orientation Groundspeed Altitude Reporting Facility
EDT Latitude Longitude Course Direction KTS MPH feet Rate Location/Type
05:40PM 40.8322 -91.0908 73° East 124 143 2,700  Level Chicago Center
05:41PM 40.8411 -90.8357 72° East  Level FlightAware Approximate
05:41PM 40.8469 -91.0544 62° Northeast 114 131 3,500  Level Chicago Center
05:42PM 40.8592 -90.7816 57° Northeast  Level FlightAware Approximate
05:42PM 40.8603 -91.0142 66° East 117 135 4,300  Level Chicago Center
05:43PM 40.8726 -90.7263 72° East  Level FlightAware Approximate
05:43PM 40.8761 -90.9625 68° East 124 143 5,100  Level Chicago Center
05:44PM 40.8865 -90.6696 73° East  Level FlightAware Approximate
05:44PM 40.8864 -90.9181 73° East 126 145 5,900  Level Chicago Center
05:45PM 40.8998 -90.6126 73° East  Level FlightAware Approximate
05:45PM 40.8986 -90.8742 70° East 127 146 6,700  Level Chicago Center
05:46PM 40.9130 -90.5556 73° East  Level FlightAware Approximate
05:46PM 40.9139 -90.8317 65° Northeast 128 147 7,400  Level Chicago Center
05:48PM 40.9292 -90.7892 65° Northeast 129 148 8,100 720 Climbing Chicago Center
05:49PM 40.9447 -90.7458 65° Northeast 131 151 8,900 480 Climbing Chicago Center
05:50PM 40.9658 -90.6889 64° Northeast 145 167 9,200 60 Climbing Chicago Center
05:51PM 40.9842 -90.6339 66° East 161 185 9,100 -60 Descending Chicago Center
05:52PM 41.0008 -90.5758 69° East 167 192 9,100  Level Chicago Center
05:53PM 41.0194 -90.5183 67° East 169 194 9,100  Level Chicago Center
05:54PM 41.0394 -90.4631 64° Northeast 167 192 9,100 -60 Level Chicago Center
05:55PM 41.0558 -90.4053 69° East 168 193 9,000  Descending Chicago Center
05:56PM 41.0778 -90.3386 66° East 165 190 9,100  Climbing Chicago Center
05:57PM 41.1003 -90.2847 61° Northeast 166 191 9,100  Level Chicago Center
05:58PM 41.1231 -90.2303 61° Northeast 169 194 9,100  Level Chicago Center
05:59PM 41.1400 -90.1733 68° East 166 191 9,100  Level Chicago Center
06:00PM 41.1528 -90.1161 73° East 164 189 9,100  Level Chicago Center
06:01PM 41.1656 -90.0564 74° East 166 191 9,100  Level Chicago Center
06:02PM 41.1772 -89.9978 75° East 164 189 9,100  Level Chicago Center
06:03PM 41.1989 -89.9303 67° East 165 190 9,100  Level Chicago Center
06:04PM 41.2150 -89.8719 70° East 168 193 9,100 -60 Level Chicago Center
06:05PM 41.2367 -89.8161 63° Northeast 169 194 9,000  Descending Chicago Center
06:06PM 41.2575 -89.7586 64° Northeast 172 198 9,100  Climbing Chicago Center
06:07PM 41.2767 -89.7025 66° East 167 192 9,100 -60 Level Chicago Center
06:08PM 41.2972 -89.6453 64° Northeast 169 194 9,000 -60 Descending Chicago Center
06:09PM 41.3192 -89.5769 67° East 168 193 9,000  Level Chicago Center
06:10PM 41.3403 -89.5214 63° Northeast 168 193 9,000  Level Chicago Center
06:11PM 41.3631 -89.4675 61° Northeast 168 193 9,000  Level Chicago Center
06:12PM 41.3836 -89.4117 64° Northeast 168 193 9,100  Climbing Chicago Center
06:13PM 41.4047 -89.3567 63° Northeast 167 192 9,000 -60 Descending Chicago Center
06:14PM 41.4214 -89.2983 69° East 168 193 9,000  Level Chicago Center
06:15PM 41.4400 -89.2258 71° East 171 197 9,100  Climbing Chicago Center
06:16PM 41.4561 -89.1667 70° East 168 193 9,100 -60 Level Chicago Center
06:18PM 41.4719 -89.1072 70° East 170 196 9,000 -60 Descending Chicago Center
06:19PM 41.4875 -89.0478 71° East 170 196 9,000  Level Chicago Center
06:20PM 41.5061 -88.9928 66° East 166 191 9,000 -240 Level Chicago Center
06:21PM 41.5242 -88.9361 67° East 166 191 8,600 -480 Descending Chicago Center
06:22PM 41.5458 -88.8678 67° East 167 192 8,100 -300 Descending Chicago Center
06:23PM 41.5606 -88.8094 71° East 167 192 8,000 -60 Descending Chicago Center
06:24PM 41.5769 -88.7525 69° East 165 190 8,000  Level Chicago Center
06:25PM 41.5919 -88.6950 71° East 166 191 8,000  Level Chicago Center
06:27PM 41.6333 -88.5833 64° Northeast 161 185 8,100  Climbing Chicago TRACON
06:28PM 41.6667 -88.5333 48° Northeast 165 190 8,100 -60 Level Chicago TRACON
06:29PM 41.6903 -88.4792 60° Northeast 164 189 8,000 -60 Descending Chicago Center
06:30PM 41.7136 -88.4275 59° Northeast 163 188 8,000 -240 Level Chicago Center
06:31PM 41.7067 -88.3750 100° East 170 196 7,600 -540 Descending Chicago Center
06:32PM 41.6761 -88.3314 133° Southeast 163 188 7,000 -300 Descending Chicago Center
06:33PM 41.6539 -88.2703 116° Southeast 176 203 7,000  Level Chicago Center
06:34PM 41.6833 -88.2381 39° Northeast 163 188 7,000 -240 Level Chicago Center
06:35PM 41.7231 -88.2603 337° Northwest 154 177 6,600 -540 Descending Chicago Center
06:36PM 41.7642 -88.2853 336° Northwest 161 185 6,000 -300 Descending Chicago Center
06:37PM 41.7617 -88.3303 266° West 169 194 6,000  Level Chicago Center
06:38PM 41.7519 -88.2731 103° East 160 184 6,100 -180 Climbing Chicago Center
06:39PM 41.7636 -88.2156 75° East 158 182 5,700 -540 Descending Chicago Center
06:40PM 41.7861 -88.1564 63° Northeast 174 200 5,100 -780 Descending Chicago Center
06:41PM 41.8125 -88.0997 58° Northeast 177 204 4,100 -540 Descending Chicago Center
06:42PM 41.8389 -88.0461 57° Northeast 176 203 4,000 -540 Descending Chicago Center
06:43PM 41.8681 -87.9986 50° Northeast 172 198 3,000 -1,080 Descending Chicago Center
06:44PM 41.9000 -87.9667 37° Northeast 159 183 2,300 -960 Descending Chicago TRACON
06:45PM 41.9333 -87.9333 37° Northeast 157 181 1,500 -840 Descending Chicago TRACON
06:47PM 41.9667 -87.9000 56° Northeast  Level FlightAware Approximate
06:54PM 41.9817 -87.9067 56° Northeast  Level Estimated